createdAt,value
2022-10-08T00:00:53.905Z,6.60
2022-10-08T00:05:37.410Z,6.00
2022-10-08T00:10:22.381Z,6.83
2022-10-08T00:15:06.443Z,6.70
2022-10-08T00:19:50.039Z,8.30
2022-10-08T00:24:33.688Z,7.13
2022-10-08T00:29:21.135Z,6.80
2022-10-08T00:34:06.631Z,6.60
2022-10-08T00:38:50.569Z,6.50
2022-10-08T00:43:44.217Z,6.77
2022-10-08T00:48:29.239Z,6.90
2022-10-08T00:53:12.809Z,7.13
2022-10-08T00:57:58.483Z,6.10
2022-10-08T01:02:42.203Z,6.00
2022-10-08T01:07:32.605Z,5.70
2022-10-08T01:12:26.255Z,7.00
2022-10-08T01:17:18.921Z,6.60
2022-10-08T01:22:14.923Z,5.23
2022-10-08T01:27:03.665Z,5.53
2022-10-08T01:31:51.932Z,5.00
2022-10-08T01:36:39.214Z,4.97
2022-10-08T01:41:26.509Z,5.73
2022-10-08T01:46:14.319Z,5.50
2022-10-08T01:51:04.368Z,5.00
2022-10-08T01:55:50.712Z,5.27
2022-10-08T02:00:35.364Z,4.80
2022-10-08T02:05:19.043Z,4.00
2022-10-08T02:10:10.271Z,4.83
2022-10-08T02:14:57.438Z,4.70
2022-10-08T02:19:49.471Z,4.53
2022-10-08T02:24:38.262Z,4.43
2022-10-08T02:29:29.249Z,4.47
2022-10-08T02:34:17.767Z,4.60
2022-10-08T02:39:05.169Z,4.57
2022-10-08T02:43:51.515Z,4.63
2022-10-08T02:48:39.062Z,3.90
2022-10-08T02:53:23.939Z,4.77
2022-10-08T02:58:10.663Z,4.63
2022-10-08T03:02:59.175Z,4.53
2022-10-08T03:07:45.544Z,4.63
2022-10-08T03:12:29.128Z,5.70
2022-10-08T03:17:17.254Z,5.97
2022-10-08T03:22:00.816Z,5.57
2022-10-08T03:26:45.706Z,5.60
2022-10-08T03:31:29.218Z,5.10
2022-10-08T03:36:12.972Z,5.60
2022-10-08T03:40:58.186Z,5.00
2022-10-08T03:45:51.485Z,5.13
2022-10-08T03:50:35.660Z,4.37
2022-10-08T03:55:19.329Z,4.20
2022-10-08T04:00:02.803Z,4.20
2022-10-08T04:04:47.835Z,4.57
2022-10-08T04:09:31.315Z,4.00
2022-10-08T04:14:14.755Z,4.10
2022-10-08T04:18:58.303Z,3.60
2022-10-08T04:23:44.656Z,3.73
2022-10-08T04:28:28.521Z,3.90
2022-10-08T04:33:12.013Z,4.40
2022-10-08T04:37:55.562Z,3.50
2022-10-08T04:42:40.479Z,3.30
2022-10-08T04:47:24.273Z,3.67
2022-10-08T04:52:07.726Z,4.20
2022-10-08T04:56:51.268Z,3.87
2022-10-08T05:01:36.356Z,3.87
2022-10-08T05:06:23.595Z,4.20
2022-10-08T05:11:07.287Z,4.80
2022-10-08T05:15:50.869Z,5.00
2022-10-08T05:20:37.370Z,4.83
2022-10-08T05:25:20.926Z,4.93
2022-10-08T05:30:05.024Z,4.67
2022-10-08T05:34:48.467Z,4.27
2022-10-08T05:39:33.378Z,4.27
2022-10-08T05:44:17.362Z,3.93
2022-10-08T05:49:02.635Z,4.30
2022-10-08T05:53:47.284Z,4.70
2022-10-08T05:58:32.328Z,5.07
2022-10-08T06:03:15.944Z,4.97
2022-10-08T06:08:00.374Z,4.80
2022-10-08T06:12:45.374Z,4.00
2022-10-08T06:17:30.652Z,4.53
2022-10-08T06:22:14.111Z,4.20
2022-10-08T06:26:57.575Z,3.90
2022-10-08T06:31:41.198Z,3.93
2022-10-08T06:36:27.649Z,6.53
2022-10-08T06:41:11.181Z,3.93
2022-10-08T06:45:56.685Z,3.90
2022-10-08T06:50:40.718Z,3.90
2022-10-08T06:55:25.657Z,4.27
2022-10-08T07:00:10.539Z,4.17
2022-10-08T07:04:54.022Z,4.30
2022-10-08T07:09:37.576Z,4.30
2022-10-08T07:14:22.592Z,4.50
2022-10-08T07:19:06.196Z,4.70
2022-10-08T07:23:49.938Z,5.50
2022-10-08T07:28:35.773Z,5.70
2022-10-08T07:33:20.885Z,5.20
2022-10-08T07:38:04.491Z,5.27
2022-10-08T07:42:48.308Z,5.20
2022-10-08T07:47:32.059Z,5.13
2022-10-08T07:52:16.916Z,6.23
2022-10-08T07:57:02.244Z,5.90
2022-10-08T08:01:46.149Z,5.60
2022-10-08T08:06:30.353Z,5.70
2022-10-08T08:11:17.021Z,5.40
2022-10-08T08:16:01.351Z,4.80
2022-10-08T08:20:44.923Z,5.87
2022-10-08T08:25:28.391Z,5.47
2022-10-08T08:30:14.475Z,5.33
2022-10-08T08:34:58.005Z,6.07
2022-10-08T08:39:41.485Z,6.60
2022-10-08T08:44:29.066Z,6.63
2022-10-08T08:49:20.176Z,7.00
2022-10-08T08:54:03.824Z,6.73
2022-10-08T08:58:53.909Z,5.20
2022-10-08T09:03:42.632Z,5.13
2022-10-08T09:08:32.441Z,5.30
2022-10-08T09:13:19.488Z,4.47
2022-10-08T09:18:05.324Z,4.17
2022-10-08T09:22:51.648Z,3.80
2022-10-08T09:27:47.284Z,4.33
2022-10-08T09:32:30.808Z,4.63
2022-10-08T09:37:22.414Z,4.30
2022-10-08T09:42:17.431Z,5.03
2022-10-08T09:47:11.758Z,5.40
2022-10-08T09:51:57.559Z,5.93
2022-10-08T09:56:41.237Z,5.83
2022-10-08T10:01:26.201Z,5.10
2022-10-08T10:06:11.246Z,4.57
2022-10-08T10:10:55.776Z,4.93
2022-10-08T10:15:44.767Z,3.70
2022-10-08T10:20:31.948Z,4.23
2022-10-08T10:25:23.356Z,4.03
2022-10-08T10:30:18.928Z,4.03
2022-10-08T10:35:08.718Z,4.20
2022-10-08T10:39:59.375Z,3.97
2022-10-08T10:44:52.914Z,4.50
2022-10-08T10:49:39.202Z,4.73
2022-10-08T10:54:44.523Z,4.97
2022-10-08T10:59:45.514Z,6.23
2022-10-08T11:04:45.575Z,5.73
2022-10-08T11:09:40.716Z,5.50
2022-10-08T11:14:48.054Z,5.80
2022-10-08T11:19:45.785Z,5.87
2022-10-08T11:24:56.409Z,5.43
2022-10-08T11:29:47.020Z,5.80
2022-10-08T11:34:34.526Z,6.33
2022-10-08T11:39:22.678Z,6.60
2022-10-08T11:44:09.527Z,7.60
2022-10-08T11:48:53.059Z,7.00
2022-10-08T11:53:36.633Z,8.80
2022-10-08T11:58:25.037Z,7.57
2022-10-08T12:03:22.310Z,8.33
2022-10-08T12:08:06.586Z,8.00
2022-10-08T12:13:24.396Z,7.97
2022-10-08T12:18:33.256Z,8.77
2022-10-08T12:23:43.699Z,8.30
2022-10-08T12:28:46.930Z,8.50
2022-10-08T12:33:36.078Z,8.97
2022-10-08T12:38:32.158Z,8.20
2022-10-08T12:43:26.249Z,8.20
2022-10-08T12:48:19.238Z,9.77
2022-10-08T12:53:05.455Z,10.00
2022-10-08T12:57:51.391Z,10.23
2022-10-08T13:02:39.218Z,10.60
2022-10-08T13:07:28.452Z,10.80
2022-10-08T13:12:13.430Z,10.93
2022-10-08T13:16:58.032Z,11.90
2022-10-08T13:21:41.563Z,12.17
2022-10-08T13:26:42.234Z,11.93
2022-10-08T13:31:27.317Z,13.10
2022-10-08T13:36:11.007Z,12.43
2022-10-08T13:40:58.916Z,12.57
2022-10-08T13:45:42.374Z,12.27
2022-10-08T13:50:27.581Z,10.23
2022-10-08T13:55:23.437Z,11.23
2022-10-08T14:00:07.723Z,10.57
2022-10-08T14:04:51.643Z,9.97
2022-10-08T14:09:36.469Z,9.93
2022-10-08T14:14:19.992Z,11.10
2022-10-08T14:19:04.381Z,11.40
2022-10-08T14:23:50.136Z,11.27
2022-10-08T14:28:35.212Z,11.07
2022-10-08T14:33:18.814Z,12.10
2022-10-08T14:38:02.289Z,12.53
2022-10-08T14:42:46.231Z,15.57
2022-10-08T14:47:31.360Z,14.83
2022-10-08T14:52:14.968Z,14.50
2022-10-08T14:56:58.689Z,12.23
2022-10-08T15:01:42.664Z,13.10
2022-10-08T15:06:28.993Z,15.77
2022-10-08T15:11:12.476Z,21.37
2022-10-08T15:15:55.946Z,18.73
2022-10-08T15:20:39.966Z,20.53
2022-10-08T15:25:24.901Z,18.77
2022-10-08T15:30:09.637Z,18.70
2022-10-08T15:34:53.137Z,17.10
2022-10-08T15:39:36.602Z,23.23
2022-10-08T15:44:22.738Z,21.73
2022-10-08T15:49:06.709Z,22.53
2022-10-08T15:53:50.536Z,23.87
2022-10-08T15:58:49.860Z,22.43
2022-10-08T16:03:40.573Z,25.27
2022-10-08T16:08:24.076Z,27.27
2022-10-08T16:13:07.951Z,23.57
2022-10-08T16:17:52.624Z,22.40
2022-10-08T16:22:37.865Z,23.23
2022-10-08T16:27:21.385Z,23.17
2022-10-08T16:32:04.954Z,22.13
2022-10-08T16:36:49.281Z,20.73
2022-10-08T16:41:36.191Z,21.87
2022-10-08T16:46:21.975Z,27.97
2022-10-08T16:51:05.645Z,30.13
2022-10-08T16:55:49.218Z,24.53
2022-10-08T17:00:36.114Z,28.57
2022-10-08T17:05:19.705Z,28.07
2022-10-08T17:10:03.377Z,28.77
2022-10-08T17:14:46.870Z,25.80
2022-10-08T17:19:32.382Z,25.00
2022-10-08T17:24:16.332Z,25.90
2022-10-08T17:29:04.733Z,23.43
2022-10-08T17:33:49.233Z,23.57
2022-10-08T17:38:35.015Z,24.30
2022-10-08T17:43:22.207Z,24.17
2022-10-08T17:48:06.249Z,21.93
2022-10-08T17:52:51.089Z,20.97
2022-10-08T17:57:36.244Z,19.67
2022-10-08T18:02:20.547Z,13.20
2022-10-08T18:07:05.056Z,7.93
2022-10-08T18:11:52.257Z,7.60
2022-10-08T18:16:38.013Z,7.10
2022-10-08T18:21:22.521Z,7.30
2022-10-08T18:26:17.618Z,7.20
2022-10-08T18:31:05.217Z,6.63
2022-10-08T18:35:50.724Z,7.33
2022-10-08T18:40:35.466Z,9.30
2022-10-08T18:45:19.313Z,8.63
2022-10-08T18:50:03.366Z,8.13
2022-10-08T18:54:49.024Z,8.17
2022-10-08T18:59:35.373Z,8.20
2022-10-08T19:04:21.927Z,9.47
2022-10-08T19:09:07.576Z,11.53
2022-10-08T19:13:54.325Z,10.43
2022-10-08T19:18:37.946Z,11.00
2022-10-08T19:23:22.251Z,10.70
2022-10-08T19:28:06.270Z,11.83
2022-10-08T19:32:53.999Z,13.30
2022-10-08T19:37:39.415Z,13.13
2022-10-08T19:42:24.522Z,14.03
2022-10-08T19:47:09.034Z,13.60
2022-10-08T19:51:55.889Z,11.77
2022-10-08T19:56:39.908Z,12.30
2022-10-08T20:01:25.746Z,12.77
2022-10-08T20:06:11.397Z,13.93
2022-10-08T20:10:58.148Z,14.97
2022-10-08T20:15:51.138Z,13.37
2022-10-08T20:20:35.277Z,13.13
2022-10-08T20:25:20.766Z,12.77
2022-10-08T20:30:06.403Z,12.60
2022-10-08T20:34:49.942Z,13.20
2022-10-08T20:39:35.836Z,12.73
2022-10-08T20:44:21.744Z,14.00
2022-10-08T20:49:07.792Z,13.70
2022-10-08T20:53:54.523Z,14.90
2022-10-08T20:58:38.245Z,17.43
2022-10-08T21:03:21.780Z,18.30
2022-10-08T21:08:08.033Z,18.13
2022-10-08T21:12:53.487Z,20.27
2022-10-08T21:17:37.558Z,18.70
2022-10-08T21:22:21.154Z,19.70
2022-10-08T21:27:06.179Z,19.93
2022-10-08T21:31:49.859Z,21.33
2022-10-08T21:36:35.388Z,20.10
2022-10-08T21:41:20.565Z,18.77
2022-10-08T21:46:05.588Z,18.57
2022-10-08T21:50:57.351Z,16.87
2022-10-08T21:55:40.879Z,17.47
2022-10-08T22:05:25.480Z,16.87
2022-10-08T22:10:12.749Z,11.80
2022-10-08T22:14:56.258Z,13.47
2022-10-08T22:19:39.674Z,11.37
2022-10-08T22:24:24.617Z,10.93
2022-10-08T22:29:08.549Z,9.77
2022-10-08T22:33:52.090Z,9.97
2022-10-08T22:38:37.868Z,9.90
2022-10-08T22:43:22.873Z,9.50
2022-10-08T22:48:09.247Z,8.90
2022-10-08T22:52:52.801Z,8.17
2022-10-08T22:57:36.233Z,7.00
2022-10-08T23:02:21.144Z,6.53
2022-10-08T23:07:04.675Z,5.63
2022-10-08T23:11:48.129Z,5.80
2022-10-08T23:16:33.994Z,4.97
2022-10-08T23:21:19.753Z,4.27
2022-10-08T23:26:07.133Z,4.63
2022-10-08T23:30:50.673Z,4.90
2022-10-08T23:35:34.204Z,5.90
2022-10-08T23:40:19.248Z,5.37
2022-10-08T23:45:02.704Z,5.70
2022-10-08T23:49:46.293Z,5.40
2022-10-08T23:54:29.673Z,5.57
2022-10-08T23:59:14.572Z,6.20
